Terminal Aerodrome Forecast
Issued by NWS Des Moines, IA

Home | Current Version | Previous Version | Text Only | Print | Product List | Glossary On
Versions: 1 2 3 4 5 6 7 8 9 10 11 12 13 14 15
000
FTUS43 KDMX 170520
TAFDSM
TAF
KDSM 170520Z 1706/1806 20009KT P6SM SCT250 WS020/23040KT
     FM171300 22010KT P6SM SKC
     FM180000 18006KT P6SM SKC=

USA.gov is the U.S. government's official web portal to all federal, state and local government web resources and services.